Time;durP1;ratioP1;P1;durP2;ratioP2;P2;SDS_P1;SDS_P2;PMS_P1;PMS_P2;Temp;Humidity;BMP_temperature;BMP_pressure;BME280_temperature;BME280_humidity;BME280_pressure;Samples;Min_cycle;Max_cycle;Signal;HPM_P1;HPM_P2
2022/07/17 00:00:42;;;;;;;;;;;;;;;12.19;55.47;101335.47;1707395;84;20504;-75
2022/07/17 00:03:06;;;;;;;;;;;;;;;12.14;55.59;101335.94;1706984;84;21867;-75
2022/07/17 00:05:32;;;;;;;;;;;;;;;12.08;55.71;101337.91;1706944;83;20224;-75
2022/07/17 00:07:58;;;;;;;;;;;;;;;12.03;55.80;101337.03;1707297;84;20172;-75
2022/07/17 00:10:24;;;;;;;;;;;;;;;12.00;55.91;101343.19;1707030;84;20168;-75
2022/07/17 00:12:49;;;;;;;;;;;;;;;11.98;56.02;101341.18;1707343;83;20201;-75
2022/07/17 00:15:15;;;;;;;;;;;;;;;11.96;56.14;101343.19;1706709;84;21179;-75
2022/07/17 00:17:41;;;;;;;;;;;;;;;11.95;56.26;101340.16;1707237;84;20188;-75
2022/07/17 00:20:08;;;;;;;;;;;;;;;11.94;56.36;101347.34;1706378;84;20243;-75
2022/07/17 00:22:35;;;;;;;;;;;;;;;11.93;56.46;101345.65;1706857;84;20173;-75
2022/07/17 00:25:00;;;;;;;;;;;;;;;11.94;56.55;101347.83;1707296;84;20462;-75
2022/07/17 00:27:26;;;;;;;;;;;;;;;11.95;56.62;101348.18;1687351;84;21973;-75
2022/07/17 00:29:52;;;;;;;;;;;;;;;11.95;56.74;101350.36;1707555;84;20244;-75
2022/07/17 00:32:18;;;;;;;;;;;;;;;11.98;56.81;101353.21;1713328;83;20211;-75
2022/07/17 00:34:44;;;;;;;;;;;;;;;12.01;56.90;101351.06;1704015;84;20165;-75
2022/07/17 00:37:10;;;;;;;;;;;;;;;12.06;56.98;101352.44;1702073;84;20835;-75
2022/07/17 00:39:36;;;;;;;;;;;;;;;12.07;57.04;101353.59;1704924;84;21057;-75
2022/07/17 00:42:02;;;;;;;;;;;;;;;12.06;57.10;101360.45;1702188;84;20191;-74
2022/07/17 00:44:27;;;;;;;;;;;;;;;12.03;57.19;101357.61;1709985;83;20759;-75
2022/07/17 00:46:53;;;;;;;;;;;;;;;11.99;57.23;101366.92;1719524;83;20188;-75
2022/07/17 00:49:19;;;;;;;;;;;;;;;11.90;57.32;101374.03;1707322;84;20184;-75
2022/07/17 00:51:45;;;;;;;;;;;;;;;11.80;57.42;101369.27;1707763;84;21279;-75
2022/07/17 00:54:11;;;;;;;;;;;;;;;11.74;57.52;101367.71;1707801;84;20284;-75
2022/07/17 00:56:37;;;;;;;;;;;;;;;11.68;57.62;101376.32;1708031;83;20149;-76
2022/07/17 00:59:03;;;;;;;;;;;;;;;11.61;57.69;101379.26;1707820;84;20306;-75
2022/07/17 01:01:30;;;;;;;;;;;;;;;11.53;57.79;101378.19;1708017;84;20204;-75
2022/07/17 01:03:56;;;;;;;;;;;;;;;11.48;57.86;101379.13;1707750;84;21850;-75
2022/07/17 01:06:22;;;;;;;;;;;;;;;11.43;57.95;101380.06;1707806;84;20180;-75
2022/07/17 01:08:48;;;;;;;;;;;;;;;11.39;58.00;101382.72;1707938;84;20530;-75
2022/07/17 01:11:14;;;;;;;;;;;;;;;11.34;58.06;101387.66;1707799;84;20236;-75
2022/07/17 01:13:40;;;;;;;;;;;;;;;11.30;58.15;101384.94;1707905;84;20205;-75
2022/07/17 01:16:07;;;;;;;;;;;;;;;11.27;58.22;101393.74;1707824;84;21148;-75
2022/07/17 01:18:33;;;;;;;;;;;;;;;11.21;58.30;101383.18;1707757;83;20472;-75
2022/07/17 01:21:05;;;;;;;;;;;;;;;11.14;58.41;101383.44;1707703;84;20279;-75
2022/07/17 01:23:31;;;;;;;;;;;;;;;11.11;58.47;101385.56;1707590;83;20481;-75
2022/07/17 01:25:57;;;;;;;;;;;;;;;11.06;58.54;101388.67;1707936;83;20168;-75
2022/07/17 01:28:23;;;;;;;;;;;;;;;11.05;58.63;101396.84;1707524;84;21198;-75
2022/07/17 01:30:50;;;;;;;;;;;;;;;11.03;58.71;101394.31;1687817;84;20286;-75
2022/07/17 01:33:17;;;;;;;;;;;;;;;11.03;58.83;101396.98;1707459;84;20202;-75
2022/07/17 01:35:43;;;;;;;;;;;;;;;11.05;58.94;101386.17;1707827;84;20142;-75
2022/07/17 01:38:08;;;;;;;;;;;;;;;11.06;59.05;101405.17;1707522;84;20149;-75
2022/07/17 01:40:34;;;;;;;;;;;;;;;11.03;59.14;101399.64;1708098;84;21126;-75
2022/07/17 01:43:00;;;;;;;;;;;;;;;11.02;59.23;101401.47;1707853;84;20188;-75
2022/07/17 01:45:26;;;;;;;;;;;;;;;11.04;59.32;101404.01;1717635;83;20741;-75
2022/07/17 01:47:52;;;;;;;;;;;;;;;11.02;59.41;101401.47;1711438;83;20168;-75
2022/07/17 01:50:18;;;;;;;;;;;;;;;11.01;59.50;101397.63;1703955;84;20252;-75
2022/07/17 01:52:44;;;;;;;;;;;;;;;11.00;59.60;101402.62;1700793;84;21323;-75
2022/07/17 01:55:12;;;;;;;;;;;;;;;11.00;59.69;101403.47;1700521;84;20169;-75
2022/07/17 01:57:37;;;;;;;;;;;;;;;11.01;59.78;101393.63;1700868;84;20138;-75
2022/07/17 02:00:05;;;;;;;;;;;;;;;11.01;59.90;101393.63;1700734;84;20701;-75
2022/07/17 02:02:30;;;;;;;;;;;;;;;11.03;60.03;101398.31;1700824;84;20157;-75
2022/07/17 02:04:56;;;;;;;;;;;;;;;11.03;60.13;101392.48;1700592;84;21507;-75
2022/07/17 02:07:22;;;;;;;;;;;;;;;11.02;60.30;101386.79;1700585;84;20196;-75
2022/07/17 02:09:48;;;;;;;;;;;;;;;11.02;60.40;101393.47;1700810;84;20192;-75
2022/07/17 02:12:14;;;;;;;;;;;;;;;11.03;60.50;101394.31;1700448;84;20271;-75
2022/07/17 02:14:40;;;;;;;;;;;;;;;11.03;60.63;101390.30;1700885;84;20201;-75
2022/07/17 02:17:06;;;;;;;;;;;;;;;11.02;60.71;101395.29;1700682;84;21822;-75
2022/07/17 02:19:32;;;;;;;;;;;;;;;10.98;60.76;101397.41;1695793;84;20207;-75
2022/07/17 02:21:57;;;;;;;;;;;;;;;10.94;60.82;101393.88;1699435;84;20232;-75
2022/07/17 02:24:23;;;;;;;;;;;;;;;10.89;60.91;101392.13;1700859;84;20271;-75
2022/07/17 02:26:49;;;;;;;;;;;;;;;10.81;60.96;101387.52;1700777;84;20184;-75
2022/07/17 02:29:15;;;;;;;;;;;;;;;10.75;61.03;101393.95;1699702;84;21802;-75
2022/07/17 02:31:41;;;;;;;;;;;;;;;10.69;61.08;101398.05;1700757;84;20192;-75
2022/07/17 02:34:07;;;;;;;;;;;;;;;10.67;61.15;101400.50;1700173;84;20310;-75
2022/07/17 02:36:33;;;;;;;;;;;;;;;10.65;61.23;101405.16;1700477;84;20255;-75
2022/07/17 02:38:59;;;;;;;;;;;;;;;10.64;61.29;101400.80;1698567;84;20234;-75
2022/07/17 02:41:24;;;;;;;;;;;;;;;10.61;61.35;101403.76;1685149;84;20695;-75
2022/07/17 02:43:50;;;;;;;;;;;;;;;10.58;61.43;101397.38;1700689;84;20192;-75
2022/07/17 02:46:16;;;;;;;;;;;;;;;10.58;61.52;101400.05;1714645;83;20260;-75
2022/07/17 02:48:42;;;;;;;;;;;;;;;10.59;61.61;101397.73;1700781;84;20669;-75
2022/07/17 02:51:09;;;;;;;;;;;;;;;10.62;61.71;101394.78;1705688;84;20192;-75
2022/07/17 02:53:35;;;;;;;;;;;;;;;10.64;61.80;101395.45;1714628;83;21293;-75
2022/07/17 02:56:01;;;;;;;;;;;;;;;10.66;61.88;101402.84;1707905;83;20286;-75
2022/07/17 02:58:27;;;;;;;;;;;;;;;10.67;61.96;101397.83;1698240;84;20223;-75
2022/07/17 03:00:52;;;;;;;;;;;;;;;10.71;62.08;101404.56;1703686;84;20253;-75
2022/07/17 03:03:20;;;;;;;;;;;;;;;10.75;62.21;101406.80;1699109;84;20319;-75
2022/07/17 03:05:47;;;;;;;;;;;;;;;10.77;62.29;101409.30;1702744;84;21916;-75
2022/07/17 03:08:13;;;;;;;;;;;;;;;10.76;62.37;101410.31;1700096;83;20456;-75
2022/07/17 03:10:40;;;;;;;;;;;;;;;10.74;62.46;101404.27;1698509;84;20215;-75
2022/07/17 03:13:06;;;;;;;;;;;;;;;10.71;62.53;101408.56;1698164;84;20160;-75
2022/07/17 03:15:32;;;;;;;;;;;;;;;10.72;62.64;101412.43;1700925;84;20663;-75
2022/07/17 03:17:58;;;;;;;;;;;;;;;10.73;62.67;101409.27;1701923;84;21187;-75
2022/07/17 03:20:24;;;;;;;;;;;;;;;10.74;62.75;101409.59;1700065;84;20154;-75
2022/07/17 03:22:50;;;;;;;;;;;;;;;10.77;62.82;101409.30;1708241;83;20283;-75
2022/07/17 03:25:16;;;;;;;;;;;;;;;10.78;62.86;101414.99;1719213;83;20806;-75
2022/07/17 03:27:42;;;;;;;;;;;;;;;10.79;62.90;101418.86;1699154;84;20153;-75
2022/07/17 03:30:08;;;;;;;;;;;;;;;10.83;62.97;101419.41;1699132;84;21680;-75
2022/07/17 03:32:34;;;;;;;;;;;;;;;10.86;63.02;101421.78;1699503;84;20141;-75
2022/07/17 03:35:01;;;;;;;;;;;;;;;10.89;63.07;101414.81;1696475;84;20747;-75
2022/07/17 03:37:28;;;;;;;;;;;;;;;10.93;63.12;101417.55;1700954;84;20593;-75
2022/07/17 03:39:54;;;;;;;;;;;;;;;10.99;63.20;101418.28;1707811;84;20461;-75
2022/07/17 03:42:20;;;;;;;;;;;;;;;11.16;63.39;101416.64;1697309;83;21094;-76
2022/07/17 03:44:46;;;;;;;;;;;;;;;11.39;63.39;101421.94;1702141;84;20192;-75
2022/07/17 03:47:11;;;;;;;;;;;;;;;11.68;63.39;101416.41;1707490;84;20215;-75
2022/07/17 03:49:37;;;;;;;;;;;;;;;12.62;63.78;101416.17;1707786;84;20156;-76
2022/07/17 03:52:04;;;;;;;;;;;;;;;13.60;63.45;101418.27;1707487;84;20772;-76
2022/07/17 03:54:29;;;;;;;;;;;;;;;14.49;63.08;101415.95;1707638;84;21201;-76
2022/07/17 03:56:55;;;;;;;;;;;;;;;15.27;62.63;101422.75;1707650;84;20180;-76
2022/07/17 03:59:21;;;;;;;;;;;;;;;15.77;62.09;101417.45;1707247;84;20227;-76
2022/07/17 04:01:47;;;;;;;;;;;;;;;16.37;61.66;101423.70;1707615;84;20152;-76
2022/07/17 04:04:13;;;;;;;;;;;;;;;16.87;60.94;101427.09;1714747;83;20166;-77
2022/07/17 04:06:39;;;;;;;;;;;;;;;17.44;60.45;101428.57;1705689;83;21154;-77
2022/07/17 04:09:05;;;;;;;;;;;;;;;17.93;59.46;101422.48;1699940;84;20247;-77
2022/07/17 04:11:31;;;;;;;;;;;;;;;18.07;58.60;101428.84;1718390;83;20280;-77
2022/07/17 04:13:57;;;;;;;;;;;;;;;18.32;58.13;101425.55;1698209;84;20596;-77
2022/07/17 04:16:23;;;;;;;;;;;;;;;18.86;57.46;101425.73;1698612;84;20168;-77
2022/07/17 04:18:49;;;;;;;;;;;;;;;18.96;56.37;101433.51;1700740;84;21162;-77
2022/07/17 04:21:15;;;;;;;;;;;;;;;19.17;55.89;101433.41;1707864;83;20216;-77
2022/07/17 04:23:41;;;;;;;;;;;;;;;19.31;55.21;101441.91;1700086;84;20203;-77
2022/07/17 04:26:07;;;;;;;;;;;;;;;19.25;54.61;101439.98;1697860;84;20445;-77
2022/07/17 04:28:33;;;;;;;;;;;;;;;19.55;54.03;101443.78;1712339;83;20173;-77
2022/07/17 04:31:00;;;;;;;;;;;;;;;19.36;53.17;101447.53;1704722;83;21792;-78
2022/07/17 04:33:26;;;;;;;;;;;;;;;19.40;52.76;101449.31;1701920;83;20189;-77
2022/07/17 04:35:52;;;;;;;;;;;;;;;19.53;52.10;101448.58;1713128;83;20154;-78
2022/07/17 04:38:18;;;;;;;;;;;;;;;19.72;51.54;101445.92;1703203;83;20161;-77
2022/07/17 04:40:46;;;;;;;;;;;;;;;19.72;50.50;101448.62;1698966;84;20206;-78
2022/07/17 04:43:12;;;;;;;;;;;;;;;19.20;50.08;101451.10;1701785;84;21160;-78
2022/07/17 04:45:38;;;;;;;;;;;;;;;18.72;50.35;101448.81;1719555;83;20260;-78
2022/07/17 04:48:04;;;;;;;;;;;;;;;18.53;50.82;101457.63;1709768;82;20465;-78
2022/07/17 04:50:30;;;;;;;;;;;;;;;18.30;51.15;101453.75;1707888;83;20192;-77
2022/07/17 04:52:57;;;;;;;;;;;;;;;18.29;51.34;101457.51;1718254;83;20447;-78
2022/07/17 04:55:23;;;;;;;;;;;;;;;18.43;51.47;101462.83;1700776;84;21053;-78
2022/07/17 04:57:49;;;;;;;;;;;;;;;18.58;51.45;101463.30;1704769;84;20457;-78
2022/07/17 05:00:15;;;;;;;;;;;;;;;18.75;51.39;101459.26;1704947;84;20184;-78
2022/07/17 05:02:41;;;;;;;;;;;;;;;18.79;51.31;101459.99;1699900;84;20455;-78
2022/07/17 05:05:07;;;;;;;;;;;;;;;18.78;51.21;101462.40;1701563;84;20164;-78
2022/07/17 05:07:33;;;;;;;;;;;;;;;18.83;51.23;101465.84;1698314;84;21076;-78
2022/07/17 05:09:59;;;;;;;;;;;;;;;18.92;51.13;101465.52;1701019;84;20243;-78
2022/07/17 05:12:25;;;;;;;;;;;;;;;19.02;50.99;101462.95;1700617;84;20760;-78
2022/07/17 05:14:51;;;;;;;;;;;;;;;18.83;50.86;101457.73;1708538;83;20175;-78
2022/07/17 05:17:17;;;;;;;;;;;;;;;18.62;50.84;101468.59;1707704;84;20231;-78
2022/07/17 05:19:43;;;;;;;;;;;;;;;18.66;50.87;101467.17;1706972;84;21106;-79
2022/07/17 05:22:09;;;;;;;;;;;;;;;18.76;50.76;101473.06;1706902;84;20215;-78
2022/07/17 05:24:34;;;;;;;;;;;;;;;18.67;50.70;101480.50;1707731;84;20203;-78
2022/07/17 05:27:01;;;;;;;;;;;;;;;18.83;50.68;101478.00;1697253;84;20767;-79
2022/07/17 05:29:27;;;;;;;;;;;;;;;18.72;50.54;101480.73;1691266;84;20189;-78
2022/07/17 05:31:53;;;;;;;;;;;;;;;18.95;50.64;101475.08;1690271;84;21169;-78
2022/07/17 05:34:18;;;;;;;;;;;;;;;19.14;50.49;101475.70;1691418;84;20295;-78
2022/07/17 05:36:45;;;;;;;;;;;;;;;19.01;50.27;101482.91;1705908;83;20288;-78
2022/07/17 05:39:12;;;;;;;;;;;;;;;19.26;50.31;101480.87;1701076;84;20185;-78
2022/07/17 05:41:38;;;;;;;;;;;;;;;19.48;50.24;101479.45;1702832;83;20488;-79
2022/07/17 05:44:04;;;;;;;;;;;;;;;19.62;50.10;101480.66;1704465;84;21142;-78
2022/07/17 05:46:30;;;;;;;;;;;;;;;19.63;49.96;101486.91;1721498;83;20682;-79
2022/07/17 05:48:56;;;;;;;;;;;;;;;19.71;49.87;101481.30;1707864;84;20153;-79
2022/07/17 05:51:22;;;;;;;;;;;;;;;20.01;49.80;101483.17;1707748;84;20803;-79
2022/07/17 05:53:48;;;;;;;;;;;;;;;20.06;49.58;101486.08;1707957;84;20239;-78
2022/07/17 05:56:14;;;;;;;;;;;;;;;20.01;49.43;101489.94;1707843;84;21307;-79
2022/07/17 05:58:40;;;;;;;;;;;;;;;20.02;49.31;101495.68;1708102;84;20173;-79
2022/07/17 06:01:06;;;;;;;;;;;;;;;20.08;49.20;101497.05;1707483;84;20262;-79
2022/07/17 06:03:33;;;;;;;;;;;;;;;20.02;49.00;101497.84;1707763;84;20211;-79
2022/07/17 06:05:59;;;;;;;;;;;;;;;20.01;48.97;101502.13;1707955;83;20173;-79
2022/07/17 06:08:25;;;;;;;;;;;;;;;20.04;48.88;101496.30;1707814;84;21148;-79
2022/07/17 06:10:51;;;;;;;;;;;;;;;20.18;48.76;101502.89;1707692;84;20263;-79
2022/07/17 06:13:17;;;;;;;;;;;;;;;19.98;48.58;101503.89;1707783;84;20287;-79
2022/07/17 06:15:43;;;;;;;;;;;;;;;19.99;48.61;101505.02;1715083;83;20169;-79
2022/07/17 06:18:08;;;;;;;;;;;;;;;20.14;48.48;101508.91;1714181;83;20160;-79
2022/07/17 06:20:34;;;;;;;;;;;;;;;20.15;48.36;101509.24;1707961;84;21182;-79
2022/07/17 06:23:00;;;;;;;;;;;;;;;19.98;48.30;101516.92;1707652;84;20780;-79
2022/07/17 06:25:26;;;;;;;;;;;;;;;19.81;48.21;101519.13;1700819;84;20226;-80
2022/07/17 06:27:52;;;;;;;;;;;;;;;20.03;48.26;101525.25;1686144;84;20708;-80
2022/07/17 06:30:18;;;;;;;;;;;;;;;20.25;48.17;101525.41;1707333;84;20172;-80
2022/07/17 06:32:44;;;;;;;;;;;;;;;20.34;48.03;101524.20;1707485;84;21106;-80
2022/07/17 06:35:10;;;;;;;;;;;;;;;20.23;47.83;101522.05;1707537;84;20207;-80
2022/07/17 06:37:36;;;;;;;;;;;;;;;20.17;47.85;101524.23;1705368;84;20191;-80
2022/07/17 06:40:02;;;;;;;;;;;;;;;20.31;47.84;101523.25;1696807;84;20159;-80
2022/07/17 06:42:28;;;;;;;;;;;;;;;20.48;47.66;101523.69;1705389;84;20533;-80
2022/07/17 06:44:55;;;;;;;;;;;;;;;20.50;47.58;101521.62;1701691;83;21191;-80
2022/07/17 06:47:21;;;;;;;;;;;;;;;20.48;47.37;101525.05;1707558;84;20153;-79
2022/07/17 06:49:47;;;;;;;;;;;;;;;20.49;47.32;101519.10;1693107;84;20161;-79
2022/07/17 06:52:13;;;;;;;;;;;;;;;20.34;47.11;101517.94;1692502;84;20214;-78
2022/07/17 06:54:40;;;;;;;;;;;;;;;20.42;47.23;101517.75;1698133;84;20495;-79
2022/07/17 06:57:06;;;;;;;;;;;;;;;20.57;47.04;101527.05;1698850;83;21155;-78
2022/07/17 06:59:31;;;;;;;;;;;;;;;20.59;46.93;101518.17;1694407;84;20234;-79
2022/07/17 07:01:57;;;;;;;;;;;;;;;20.60;46.83;101516.62;1705174;84;20713;-79
2022/07/17 07:04:23;;;;;;;;;;;;;;;20.70;46.77;101518.39;1704783;84;20853;-79
2022/07/17 07:06:49;;;;;;;;;;;;;;;20.71;46.50;101510.58;1703768;84;20299;-80
2022/07/17 07:09:15;;;;;;;;;;;;;;;20.72;46.37;101516.83;1689522;84;21716;-80
2022/07/17 07:11:41;;;;;;;;;;;;;;;20.07;46.17;101515.67;1703772;84;20211;-79
2022/07/17 07:14:07;;;;;;;;;;;;;;;20.11;46.40;101518.30;1701397;84;20200;-79
2022/07/17 07:16:34;;;;;;;;;;;;;;;20.46;46.29;101515.45;1699213;84;20171;-80
2022/07/17 07:18:59;;;;;;;;;;;;;;;20.76;46.22;101511.28;1702598;84;20157;-80
2022/07/17 07:21:26;;;;;;;;;;;;;;;20.60;45.88;101507.64;1701431;84;21169;-79
2022/07/17 07:23:53;;;;;;;;;;;;;;;20.52;45.73;101520.04;1697892;83;20173;-80
2022/07/17 07:26:19;;;;;;;;;;;;;;;20.63;45.77;101512.64;1699711;84;20212;-80
2022/07/17 07:28:44;;;;;;;;;;;;;;;20.94;45.67;101514.19;1701226;84;20669;-80
2022/07/17 07:31:10;;;;;;;;;;;;;;;21.11;45.39;101514.09;1705854;84;20169;-80
2022/07/17 07:33:37;;;;;;;;;;;;;;;20.94;45.24;101515.03;1705489;83;21200;-80
2022/07/17 07:36:04;;;;;;;;;;;;;;;20.63;45.11;101516.71;1706129;84;20181;-80
2022/07/17 07:38:29;;;;;;;;;;;;;;;20.24;45.14;101521.02;1706576;83;20201;-79
2022/07/17 07:40:56;;;;;;;;;;;;;;;19.72;45.10;101523.58;1705809;84;20176;-79
2022/07/17 07:43:22;;;;;;;;;;;;;;;19.48;45.26;101540.34;1705226;84;20165;-80
2022/07/17 07:45:47;;;;;;;;;;;;;;;19.82;45.40;101536.22;1712862;83;21773;-80
2022/07/17 07:48:13;;;;;;;;;;;;;;;20.34;45.23;101541.81;1705003;84;20184;-79
2022/07/17 07:50:40;;;;;;;;;;;;;;;20.17;44.89;101537.78;1695527;84;20187;-80
2022/07/17 07:53:05;;;;;;;;;;;;;;;20.17;44.72;101536.43;1705825;84;20181;-79
2022/07/17 07:55:31;;;;;;;;;;;;;;;20.31;44.76;101538.67;1706991;83;20295;-79
2022/07/17 07:58:08;;;;;;;;;;;;;;;20.21;44.53;101534.14;1706810;84;21098;-80
2022/07/17 08:00:34;;;;;;;;;;;;;;;19.88;44.54;101540.81;1707834;84;20683;-80
2022/07/17 08:03:00;;;;;;;;;;;;;;;19.95;44.77;101543.02;1693025;84;20182;-79
2022/07/17 08:05:26;;;;;;;;;;;;;;;20.35;44.81;101532.64;1704300;84;20215;-80
2022/07/17 08:07:51;;;;;;;;;;;;;;;20.26;44.40;101549.28;1707963;84;20204;-80
2022/07/17 08:10:17;;;;;;;;;;;;;;;20.11;44.44;101554.86;1707491;84;21042;-80
2022/07/17 08:12:43;;;;;;;;;;;;;;;20.29;44.46;101556.52;1708878;84;20311;-80
2022/07/17 08:15:09;;;;;;;;;;;;;;;20.64;44.40;101548.21;1707784;84;20203;-80
2022/07/17 08:17:35;;;;;;;;;;;;;;;20.73;44.23;101549.14;1708816;83;20466;-80
2022/07/17 08:20:01;;;;;;;;;;;;;;;20.25;43.97;101563.34;1729548;83;20210;-79
2022/07/17 08:22:27;;;;;;;;;;;;;;;19.83;44.08;101563.10;1729324;81;21145;-80
2022/07/17 08:24:53;;;;;;;;;;;;;;;19.98;44.33;101557.54;1729469;83;20242;-79
2022/07/17 08:27:19;;;;;;;;;;;;;;;20.29;44.19;101560.58;1729393;83;20210;-79
2022/07/17 08:29:45;;;;;;;;;;;;;;;20.48;44.05;101554.05;1729485;83;20674;-80
2022/07/17 08:32:11;;;;;;;;;;;;;;;20.73;44.04;101562.70;1729107;83;20202;-80
2022/07/17 08:34:37;;;;;;;;;;;;;;;20.37;43.73;101567.13;1729255;83;21072;-80
2022/07/17 08:37:03;;;;;;;;;;;;;;;20.51;43.86;101564.47;1729491;83;20313;-79
2022/07/17 08:39:28;;;;;;;;;;;;;;;20.95;43.94;101567.40;1729474;83;20245;-80
2022/07/17 08:41:54;;;;;;;;;;;;;;;21.06;43.55;101566.77;1729416;83;20194;-80
2022/07/17 08:44:20;;;;;;;;;;;;;;;20.78;43.29;101568.86;1727761;83;20258;-80
2022/07/17 08:46:46;;;;;;;;;;;;;;;20.96;43.29;101559.58;1728373;83;21131;-80
2022/07/17 08:49:12;;;;;;;;;;;;;;;21.13;43.28;101563.56;1728092;83;20210;-80
2022/07/17 08:51:38;;;;;;;;;;;;;;;21.47;43.12;101556.17;1723844;83;20207;-80
2022/07/17 08:54:04;;;;;;;;;;;;;;;21.61;42.91;101560.00;1715511;83;21262;-80
2022/07/17 08:56:29;;;;;;;;;;;;;;;21.69;42.66;101565.20;1707507;83;20214;-79
2022/07/17 08:58:55;;;;;;;;;;;;;;;21.59;42.46;101566.70;1714570;83;21702;-79
2022/07/17 09:01:21;;;;;;;;;;;;;;;21.67;42.20;101570.02;1712515;83;20675;-79
2022/07/17 09:03:59;;;;;;;;;;;;;;;21.02;41.67;101570.94;1715202;83;20234;-79
2022/07/17 09:06:25;;;;;;;;;;;;;;;20.89;42.04;101565.53;1715080;83;20188;-77
2022/07/17 09:09:04;;;;;;;;;;;;;;;21.31;42.04;101553.41;1715040;83;20207;-77
2022/07/17 09:11:30;;;;;;;;;;;;;;;21.57;41.94;101550.61;1714571;83;21332;-77
2022/07/17 09:13:56;;;;;;;;;;;;;;;21.74;41.58;101559.94;1673131;83;20286;-77
2022/07/17 09:16:22;;;;;;;;;;;;;;;21.33;41.49;101563.52;1714206;83;20254;-76
2022/07/17 09:18:50;;;;;;;;;;;;;;;21.47;41.60;101555.66;1714558;83;20262;-77
2022/07/17 09:21:17;;;;;;;;;;;;;;;21.68;41.48;101559.97;1714670;83;20187;-76
2022/07/17 09:23:43;;;;;;;;;;;;;;;21.62;41.03;101553.53;1709909;83;20932;-77
2022/07/17 09:26:09;;;;;;;;;;;;;;;21.69;41.07;101548.07;1714330;83;20210;-76
2022/07/17 09:28:46;;;;;;;;;;;;;;;21.85;40.93;101565.22;1714500;83;20224;-76
2022/07/17 09:31:12;;;;;;;;;;;;;;;21.71;40.75;101570.43;1714405;83;20561;-77
2022/07/17 09:33:38;;;;;;;;;;;;;;;21.47;40.62;101560.25;1715288;83;20219;-75
2022/07/17 09:36:08;;;;;;;;;;;;;;;21.49;40.63;101553.58;1714429;83;21734;-75
2022/07/17 09:38:39;;;;;;;;;;;;;;;21.49;40.52;101555.45;1709321;83;20201;-76
2022/07/17 09:41:15;;;;;;;;;;;;;;;21.52;40.49;101552.31;1708773;83;20476;-78
2022/07/17 09:43:58;;;;;;;;;;;;;;;21.60;40.48;101554.80;1715791;83;20250;-76
2022/07/17 09:46:26;;;;;;;;;;;;;;;21.52;40.34;101545.52;1695821;83;20189;-76
2022/07/17 09:48:57;;;;;;;;;;;;;;;21.50;40.15;101547.62;1715533;83;21790;-78
2022/07/17 09:51:41;;;;;;;;;;;;;;;21.43;40.09;101546.81;1715668;83;20172;-76
2022/07/17 09:54:06;;;;;;;;;;;;;;;21.43;40.11;101544.39;1714463;83;20235;-76
2022/07/17 09:56:33;;;;;;;;;;;;;;;21.47;40.00;101543.95;1715948;83;20503;-75
2022/07/17 09:59:04;;;;;;;;;;;;;;;21.45;39.96;101547.42;1715842;83;20235;-75
2022/07/17 10:01:30;;;;;;;;;;;;;;;21.30;39.96;101545.78;1715864;83;21741;-76
2022/07/17 10:03:56;;;;;;;;;;;;;;;21.24;39.97;101537.14;1716097;83;20434;-76
2022/07/17 10:06:23;;;;;;;;;;;;;;;21.17;39.95;101541.75;1702138;83;20284;-76
2022/07/17 10:08:49;;;;;;;;;;;;;;;21.09;39.87;101540.58;1712168;83;20181;-76
2022/07/17 10:11:15;;;;;;;;;;;;;;;21.15;39.97;101545.18;1715683;83;20532;-75
2022/07/17 10:13:42;;;;;;;;;;;;;;;21.25;39.86;101544.22;1715887;83;21124;-75
2022/07/17 10:16:08;;;;;;;;;;;;;;;21.38;39.92;101537.42;1715887;83;20220;-78
2022/07/17 10:18:40;;;;;;;;;;;;;;;21.25;39.77;101546.13;1712792;83;20286;-76
2022/07/17 10:21:14;;;;;;;;;;;;;;;21.15;39.76;101541.11;1715953;83;20517;-75
2022/07/17 10:23:45;;;;;;;;;;;;;;;21.20;39.76;101539.97;1716086;83;20584;-75
2022/07/17 10:26:12;;;;;;;;;;;;;;;21.21;39.64;101543.52;1721424;83;21329;-75
2022/07/17 10:28:42;;;;;;;;;;;;;;;21.14;39.52;101538.63;1714990;83;20286;-75
2022/07/17 10:31:08;;;;;;;;;;;;;;;21.31;39.56;101550.18;1715910;83;20180;-75
2022/07/17 10:33:34;;;;;;;;;;;;;;;21.47;39.38;101546.67;1701043;83;20176;-75
2022/07/17 10:36:00;;;;;;;;;;;;;;;21.49;39.21;101545.95;1706179;83;20253;-75
2022/07/17 10:38:26;;;;;;;;;;;;;;;21.43;39.06;101543.03;1715945;83;21156;-76
2022/07/17 10:41:01;;;;;;;;;;;;;;;21.64;39.09;101550.61;1713451;82;20484;-75
2022/07/17 10:43:27;;;;;;;;;;;;;;;21.74;38.95;101546.91;1715766;83;20156;-75
2022/07/17 10:45:53;;;;;;;;;;;;;;;21.68;38.72;101554.53;1715796;83;20795;-75
2022/07/17 10:48:21;;;;;;;;;;;;;;;21.72;38.55;101547.63;1715843;83;20694;-75
2022/07/17 10:50:52;;;;;;;;;;;;;;;21.66;38.43;101553.93;1715578;83;21947;-75
2022/07/17 10:53:24;;;;;;;;;;;;;;;21.76;38.30;101557.02;1714446;83;20211;-75
2022/07/17 10:55:58;;;;;;;;;;;;;;;21.67;38.00;101561.04;1715726;83;20184;-75
2022/07/17 10:58:26;;;;;;;;;;;;;;;21.57;37.89;101555.23;1715731;83;20574;-77
2022/07/17 11:00:59;;;;;;;;;;;;;;;21.50;37.98;101548.98;1716255;83;20445;-77
2022/07/17 11:03:24;;;;;;;;;;;;;;;21.64;37.93;101549.25;1715532;83;21853;-77
2022/07/17 11:05:50;;;;;;;;;;;;;;;21.59;37.55;101549.89;1715869;83;20242;-77
2022/07/17 11:08:16;;;;;;;;;;;;;;;21.58;37.53;101548.73;1715271;83;20218;-77
2022/07/17 11:10:42;;;;;;;;;;;;;;;21.61;37.39;101555.09;1715740;83;20252;-77
2022/07/17 11:13:14;;;;;;;;;;;;;;;21.50;37.29;101552.51;1715873;83;20219;-77
2022/07/17 11:15:41;;;;;;;;;;;;;;;21.58;37.34;101546.02;1714924;83;21177;-76
2022/07/17 11:18:12;;;;;;;;;;;;;;;21.58;37.11;101552.28;1715822;83;20153;-77
2022/07/17 11:20:42;;;;;;;;;;;;;;;21.61;37.19;101553.73;1715964;83;20511;-77
2022/07/17 11:23:08;;;;;;;;;;;;;;;21.79;37.17;101556.59;1711959;83;20188;-77
2022/07/17 11:25:34;;;;;;;;;;;;;;;21.74;36.88;101548.27;1693201;83;20219;-76
2022/07/17 11:28:00;;;;;;;;;;;;;;;21.76;36.80;101548.36;1708753;83;21726;-77
2022/07/17 11:30:26;;;;;;;;;;;;;;;21.78;36.70;101550.84;1715799;83;20199;-76
2022/07/17 11:32:52;;;;;;;;;;;;;;;21.80;36.70;101540.61;1721720;83;20235;-76
2022/07/17 11:35:19;;;;;;;;;;;;;;;21.81;36.71;101539.57;1715842;83;20675;-77
2022/07/17 11:37:45;;;;;;;;;;;;;;;22.04;36.82;101540.41;1715595;83;20369;-76
2022/07/17 11:40:11;;;;;;;;;;;;;;;22.15;36.59;101538.37;1715916;82;21175;-77
2022/07/17 11:42:37;;;;;;;;;;;;;;;22.12;36.19;101543.73;1699502;83;20180;-77
2022/07/17 11:45:03;;;;;;;;;;;;;;;22.04;35.88;101541.25;1685395;83;20276;-77
2022/07/17 11:47:29;;;;;;;;;;;;;;;21.99;35.73;101538.34;1698723;83;20157;-77
2022/07/17 11:50:03;;;;;;;;;;;;;;;22.07;35.73;101544.89;1688465;84;20204;-77
2022/07/17 11:52:33;;;;;;;;;;;;;;;22.19;35.71;101539.09;1689169;84;21841;-77
2022/07/17 11:54:59;;;;;;;;;;;;;;;22.27;35.59;101549.67;1698382;84;20170;-76
2022/07/17 11:57:26;;;;;;;;;;;;;;;22.28;35.49;101545.08;1700455;84;20189;-77
2022/07/17 11:59:53;;;;;;;;;;;;;;;22.30;35.52;101542.98;1700042;84;20253;-76
2022/07/17 12:02:24;;;;;;;;;;;;;;;22.35;35.46;101541.79;1669950;83;20202;-76
2022/07/17 12:04:58;;;;;;;;;;;;;;;22.24;35.35;101548.76;1704854;83;21763;-77
2022/07/17 12:07:26;;;;;;;;;;;;;;;22.14;35.42;101541.61;1700600;84;20174;-76
2022/07/17 12:09:52;;;;;;;;;;;;;;;22.24;35.51;101539.25;1700764;84;20156;-76
2022/07/17 12:12:25;;;;;;;;;;;;;;;22.35;35.44;101552.14;1700537;84;20166;-77
2022/07/17 12:14:55;;;;;;;;;;;;;;;22.18;35.33;101545.56;1700844;84;20453;-76
2022/07/17 12:17:21;;;;;;;;;;;;;;;22.12;35.39;101541.01;1691023;84;21851;-77
2022/07/17 12:19:47;;;;;;;;;;;;;;;22.18;35.36;101539.29;1656417;85;20197;-77
2022/07/17 12:22:13;;;;;;;;;;;;;;;22.27;35.28;101538.80;1699275;84;20241;-77
2022/07/17 12:24:40;;;;;;;;;;;;;;;22.38;35.22;101539.47;1700649;84;20769;-77
2022/07/17 12:27:08;;;;;;;;;;;;;;;22.37;35.14;101532.39;1700810;84;20457;-77
2022/07/17 12:29:34;;;;;;;;;;;;;;;22.50;35.24;101523.81;1700679;84;21953;-77
2022/07/17 12:32:10;;;;;;;;;;;;;;;22.68;35.22;101533.43;1700662;84;20244;-77